createdAt,value
2022-11-19T00:02:20.479Z,63.11
2022-11-19T00:07:24.126Z,63.37
2022-11-19T00:12:45.800Z,63.14
2022-11-19T00:17:49.722Z,63.68
2022-11-19T00:22:57.540Z,64.56
2022-11-19T00:28:01.989Z,63.67
2022-11-19T00:33:06.038Z,64.12
2022-11-19T00:38:10.029Z,64.35
2022-11-19T00:43:32.142Z,64.61
2022-11-19T00:48:35.245Z,64.96
2022-11-19T00:53:39.188Z,64.24
2022-11-19T00:58:43.012Z,64.97
2022-11-19T01:03:46.326Z,64.45
2022-11-19T01:08:51.388Z,64.68
2022-11-19T01:13:55.670Z,65.34
2022-11-19T01:18:59.253Z,65.51
2022-11-19T01:24:04.102Z,65.79
2022-11-19T01:29:08.014Z,65.08
2022-11-19T01:34:11.613Z,66.30
2022-11-19T01:39:15.262Z,67.25
2022-11-19T01:44:59.453Z,67.72
2022-11-19T01:50:03.302Z,68.97
2022-11-19T01:55:08.033Z,68.66
2022-11-19T02:00:12.685Z,70.24
2022-11-19T02:05:16.559Z,70.46
2022-11-19T02:10:20.083Z,69.75
2022-11-19T02:15:38.842Z,70.28
2022-11-19T02:21:08.913Z,70.65
2022-11-19T02:26:30.765Z,70.69
2022-11-19T02:31:55.156Z,70.66
2022-11-19T02:37:01.003Z,71.05
2022-11-19T02:42:22.374Z,70.57
2022-11-19T02:47:48.634Z,70.07
2022-11-19T02:52:52.845Z,70.19
2022-11-19T03:04:30.753Z,68.56
2022-11-19T03:09:38.106Z,67.97
2022-11-19T03:15:13.124Z,67.83
2022-11-19T03:20:31.917Z,68.00
2022-11-19T03:25:56.050Z,68.56
2022-11-19T03:31:01.334Z,68.16
2022-11-19T03:36:32.377Z,68.24
2022-11-19T03:41:38.432Z,67.79
2022-11-19T03:46:44.587Z,68.39
2022-11-19T03:51:53.523Z,68.46
2022-11-19T03:56:59.142Z,68.56
2022-11-19T04:02:07.175Z,68.74
2022-11-19T04:07:14.852Z,67.92
2022-11-19T04:12:20.818Z,68.04
2022-11-19T04:17:23.913Z,68.72
2022-11-19T04:22:27.502Z,69.59
2022-11-19T04:27:30.923Z,69.80
2022-11-19T04:32:34.946Z,69.50
2022-11-19T04:37:38.202Z,70.14
2022-11-19T04:42:42.235Z,70.76
2022-11-19T04:47:45.227Z,70.90
2022-11-19T04:52:48.665Z,70.92
2022-11-19T04:57:53.221Z,71.13
2022-11-19T05:02:57.093Z,71.80
2022-11-19T05:08:00.084Z,71.55
2022-11-19T05:13:03.807Z,71.89
2022-11-19T05:18:07.846Z,71.42
2022-11-19T05:23:11.579Z,70.87
2022-11-19T05:28:15.004Z,71.02
2022-11-19T05:33:18.040Z,72.42
2022-11-19T05:38:21.459Z,72.70
2022-11-19T05:43:25.290Z,72.81
2022-11-19T05:48:29.124Z,76.76
2022-11-19T05:53:33.098Z,78.34
2022-11-19T05:58:36.561Z,78.52
2022-11-19T06:03:41.134Z,78.66
2022-11-19T06:08:44.563Z,77.73
2022-11-19T06:13:48.142Z,77.31
2022-11-19T06:18:51.110Z,76.26
2022-11-19T06:23:57.205Z,76.55
2022-11-19T06:29:01.180Z,77.17
2022-11-19T06:34:04.692Z,77.21
2022-11-19T06:39:08.298Z,77.44
2022-11-19T06:44:11.323Z,76.55
2022-11-19T06:49:19.937Z,76.70
2022-11-19T06:54:23.346Z,76.78
2022-11-19T06:59:26.343Z,78.01
2022-11-19T07:04:29.564Z,78.28
2022-11-19T07:09:32.926Z,79.25
2022-11-19T07:14:36.432Z,78.32
2022-11-19T07:19:40.596Z,79.06
2022-11-19T07:24:43.663Z,76.82
2022-11-19T07:29:47.678Z,74.95
2022-11-19T07:34:50.655Z,74.03
2022-11-19T07:39:54.198Z,73.49
2022-11-19T07:44:57.654Z,73.73
2022-11-19T07:50:01.049Z,74.51
2022-11-19T07:55:04.437Z,74.52
2022-11-19T08:00:08.686Z,75.37
2022-11-19T08:05:18.547Z,75.87
2022-11-19T08:10:22.350Z,75.87
2022-11-19T08:15:26.043Z,76.55
2022-11-19T08:20:29.689Z,76.15
2022-11-19T08:25:33.475Z,75.81
2022-11-19T08:30:36.560Z,76.32
2022-11-19T08:35:41.627Z,77.51
2022-11-19T08:40:51.891Z,78.69
2022-11-19T08:45:54.979Z,77.87
2022-11-19T08:50:58.855Z,76.37
2022-11-19T08:56:01.895Z,77.76
2022-11-19T09:01:12.752Z,76.28
2022-11-19T09:06:17.094Z,76.03
2022-11-19T09:11:21.423Z,73.26
2022-11-19T09:16:25.171Z,68.69
2022-11-19T09:21:34.156Z,64.78
2022-11-19T09:26:37.739Z,61.40
2022-11-19T09:31:40.736Z,59.94
2022-11-19T09:36:44.255Z,61.71
2022-11-19T09:42:25.746Z,63.73
2022-11-19T09:48:02.279Z,63.20
2022-11-19T09:53:21.923Z,61.41
2022-11-19T09:58:27.914Z,61.08
2022-11-19T10:03:33.928Z,59.56
2022-11-19T10:09:14.991Z,57.97
2022-11-19T10:14:40.799Z,55.10
2022-11-19T10:20:14.154Z,54.96
2022-11-19T10:25:39.080Z,52.97
2022-11-19T10:30:50.183Z,55.97
2022-11-19T10:36:03.201Z,57.94
2022-11-19T10:41:15.627Z,57.74
2022-11-19T10:46:23.157Z,55.55
2022-11-19T10:51:34.292Z,54.80
2022-11-19T10:56:42.568Z,54.39
2022-11-19T11:01:49.700Z,55.45
2022-11-19T11:07:01.088Z,55.63
2022-11-19T11:12:35.790Z,54.13
2022-11-19T11:17:39.967Z,56.53
2022-11-19T11:22:46.809Z,55.95
2022-11-19T11:28:12.735Z,55.12
2022-11-19T11:33:38.836Z,53.79
2022-11-19T11:38:54.944Z,51.91
2022-11-19T11:44:20.808Z,52.44
2022-11-19T11:49:27.685Z,50.88
2022-11-19T11:54:31.088Z,50.23
2022-11-19T11:59:36.305Z,50.42
2022-11-19T12:04:40.274Z,51.96
2022-11-19T12:10:05.923Z,50.76
2022-11-19T12:15:47.468Z,52.57
2022-11-19T12:21:00.675Z,54.66
2022-11-19T12:26:23.100Z,56.12
2022-11-19T12:31:53.295Z,57.27
2022-11-19T12:37:16.313Z,57.45
2022-11-19T12:42:53.142Z,58.46
2022-11-19T12:48:23.609Z,58.31
2022-11-19T12:53:52.065Z,57.12
2022-11-19T12:59:17.562Z,57.57
2022-11-19T13:04:32.385Z,57.48
2022-11-19T13:09:59.907Z,57.17
2022-11-19T13:15:15.607Z,55.47
2022-11-19T13:20:40.183Z,57.61
2022-11-19T13:25:51.517Z,60.89
2022-11-19T13:31:01.794Z,63.35
2022-11-19T13:36:30.235Z,63.81
2022-11-19T13:42:05.848Z,65.25
2022-11-19T13:47:29.280Z,65.91
2022-11-19T13:52:38.526Z,65.37
2022-11-19T13:57:45.632Z,65.11
2022-11-19T14:03:19.599Z,66.44
2022-11-19T14:08:47.480Z,68.27
2022-11-19T14:13:56.752Z,70.36
2022-11-19T14:19:21.496Z,70.55
2022-11-19T14:24:43.941Z,74.96
2022-11-19T14:29:47.447Z,78.54
2022-11-19T14:35:03.078Z,79.89
2022-11-19T14:40:17.723Z,81.34
2022-11-19T14:45:22.270Z,82.23
2022-11-19T14:50:28.880Z,79.77
2022-11-19T14:55:35.443Z,77.27
2022-11-19T15:00:41.281Z,76.95
2022-11-19T15:05:47.196Z,76.96
2022-11-19T15:11:12.314Z,77.01
2022-11-19T15:16:25.785Z,77.77
2022-11-19T15:21:51.667Z,75.87
2022-11-19T15:27:10.488Z,74.79
2022-11-19T15:32:28.957Z,73.40
2022-11-19T15:37:55.003Z,73.13
2022-11-19T15:43:04.383Z,71.36
2022-11-19T15:48:13.315Z,73.08
2022-11-19T15:53:19.282Z,73.62
2022-11-19T15:58:46.384Z,74.36
2022-11-19T16:03:53.062Z,78.88
2022-11-19T16:09:05.265Z,77.54
2022-11-19T16:14:48.807Z,77.01
2022-11-19T16:20:22.700Z,75.67
2022-11-19T16:25:43.543Z,72.86
2022-11-19T16:30:50.500Z,68.75
2022-11-19T16:36:12.024Z,66.55
2022-11-19T16:41:41.480Z,68.16
2022-11-19T16:46:46.605Z,68.62
2022-11-19T16:51:50.122Z,68.77
2022-11-19T16:56:53.861Z,69.77
2022-11-19T17:02:00.248Z,68.37
2022-11-19T17:07:14.794Z,67.31
2022-11-19T17:12:27.773Z,67.21
2022-11-19T17:17:41.068Z,66.63
2022-11-19T17:22:45.146Z,67.68
2022-11-19T17:27:55.355Z,66.65
2022-11-19T17:33:06.003Z,67.25
2022-11-19T17:38:13.711Z,68.49
2022-11-19T17:43:41.322Z,71.32
2022-11-19T17:48:46.276Z,72.58
2022-11-19T17:53:54.809Z,75.09
2022-11-19T17:58:59.849Z,76.60
2022-11-19T18:04:02.948Z,76.84
2022-11-19T18:09:06.503Z,76.57
2022-11-19T18:14:13.028Z,76.39
2022-11-19T18:19:28.759Z,77.47
2022-11-19T18:24:32.442Z,79.35
2022-11-19T18:29:35.631Z,79.37
2022-11-19T18:34:38.711Z,80.88
2022-11-19T18:39:41.744Z,81.28
2022-11-19T18:44:45.247Z,82.85
2022-11-19T18:49:48.432Z,84.81
2022-11-19T18:54:51.714Z,85.97
2022-11-19T18:59:54.952Z,85.94
2022-11-19T19:04:58.010Z,87.94
2022-11-19T19:10:01.952Z,87.71
2022-11-19T19:15:06.967Z,88.35
2022-11-19T19:20:10.543Z,89.99
2022-11-19T19:25:14.632Z,89.08
2022-11-19T19:30:18.977Z,88.59
2022-11-19T19:35:22.774Z,90.97
2022-11-19T19:40:25.781Z,91.14
2022-11-19T19:45:29.734Z,91.79
2022-11-19T19:50:33.244Z,92.62
2022-11-19T19:55:36.251Z,92.61
2022-11-19T20:00:39.745Z,92.07
2022-11-19T20:05:49.371Z,92.11
2022-11-19T20:10:52.838Z,91.40
2022-11-19T20:15:58.779Z,91.16
2022-11-19T20:21:01.940Z,92.16
2022-11-19T20:26:23.537Z,91.60
2022-11-19T20:31:27.239Z,90.99
2022-11-19T20:36:33.583Z,90.60
2022-11-19T20:41:55.126Z,90.16
2022-11-19T20:47:03.379Z,90.45
2022-11-19T20:52:08.493Z,88.85
2022-11-19T20:57:11.728Z,87.87
2022-11-19T21:02:14.897Z,87.12
2022-11-19T21:07:17.967Z,86.69
2022-11-19T21:12:21.514Z,84.28
2022-11-19T21:17:25.138Z,83.43
2022-11-19T21:22:28.131Z,83.06
2022-11-19T21:27:32.053Z,83.06
2022-11-19T21:32:35.113Z,82.60
2022-11-19T21:37:38.711Z,82.46
2022-11-19T21:42:42.161Z,80.98
2022-11-19T21:47:45.247Z,81.15
2022-11-19T21:52:48.394Z,80.56
2022-11-19T21:57:52.483Z,80.24
2022-11-19T22:02:55.896Z,79.92
2022-11-19T22:08:00.316Z,80.37
2022-11-19T22:13:04.388Z,79.64
2022-11-19T22:18:07.540Z,80.22
2022-11-19T22:23:10.642Z,79.29
2022-11-19T22:28:14.063Z,78.34
2022-11-19T22:33:17.171Z,77.87
2022-11-19T22:38:20.988Z,77.47
2022-11-19T22:43:23.945Z,75.53
2022-11-19T22:48:32.140Z,72.93
2022-11-19T22:53:36.752Z,71.64
2022-11-19T22:58:40.137Z,73.56
2022-11-19T23:03:43.519Z,73.73
2022-11-19T23:08:47.143Z,73.10
2022-11-19T23:13:50.293Z,74.91
2022-11-19T23:18:53.976Z,74.80
2022-11-19T23:24:00.166Z,75.40
2022-11-19T23:29:04.640Z,74.98
2022-11-19T23:34:08.456Z,74.99
2022-11-19T23:39:15.855Z,74.77
2022-11-19T23:44:19.485Z,74.01
2022-11-19T23:49:23.259Z,74.44
2022-11-19T23:54:26.643Z,73.91
2022-11-19T23:59:30.001Z,72.90
